sensor_id;sensor_type;location;lat;lon;timestamp;temperature;humidity
74934;DHT22;63499;53.232;7.492;2023-04-25T09:30:09;10.40;99.90
74934;DHT22;63499;53.232;7.492;2023-04-25T09:33:10;10.60;99.90
74934;DHT22;63499;53.232;7.492;2023-04-25T09:35:43;10.50;99.90
74934;DHT22;63499;53.232;7.492;2023-04-25T09:38:18;10.40;99.90
74934;DHT22;63499;53.232;7.492;2023-04-25T09:40:54;10.30;99.90
74934;DHT22;63499;53.232;7.492;2023-04-25T09:43:34;10.30;99.90
74934;DHT22;63499;53.232;7.492;2023-04-25T09:46:01;10.10;99.90
74934;DHT22;63499;53.232;7.492;2023-04-25T09:48:29;10.10;99.90
74934;DHT22;63499;53.232;7.492;2023-04-25T09:51:11;10.30;99.90
74934;DHT22;63499;53.232;7.492;2023-04-25T09:53:45;10.30;99.90
74934;DHT22;63499;53.232;7.492;2023-04-25T09:56:22;10.00;99.90
74934;DHT22;63499;53.232;7.492;2023-04-25T09:58:50;9.70;99.90
74934;DHT22;63499;53.232;7.492;2023-04-25T10:01:21;9.50;99.90
74934;DHT22;63499;53.232;7.492;2023-04-25T10:04:01;9.50;99.90
74934;DHT22;63499;53.232;7.492;2023-04-25T10:06:53;9.70;99.90
74934;DHT22;63499;53.232;7.492;2023-04-25T10:09:23;10.10;99.90
74934;DHT22;63499;53.232;7.492;2023-04-25T10:11:50;10.30;99.90
74934;DHT22;63499;53.232;7.492;2023-04-25T10:14:18;10.50;99.90
74934;DHT22;63499;53.232;7.492;2023-04-25T10:16:45;10.90;99.90
74934;DHT22;63499;53.232;7.492;2023-04-25T10:19:13;10.90;99.90
74934;DHT22;63499;53.232;7.492;2023-04-25T10:24:28;11.40;99.90
74934;DHT22;63499;53.232;7.492;2023-04-25T10:26:56;11.60;99.90
74934;DHT22;63499;53.232;7.492;2023-04-25T10:29:24;11.90;99.90
74934;DHT22;63499;53.232;7.492;2023-04-25T10:31:50;11.90;99.90
74934;DHT22;63499;53.232;7.492;2023-04-25T10:34:17;11.70;99.90
74934;DHT22;63499;53.232;7.492;2023-04-25T10:36:49;11.50;99.90
74934;DHT22;63499;53.232;7.492;2023-04-25T10:39:26;11.70;99.90
74934;DHT22;63499;53.232;7.492;2023-04-25T10:44:20;12.10;99.90
74934;DHT22;63499;53.232;7.492;2023-04-25T10:46:46;12.20;99.90
74934;DHT22;63499;53.232;7.492;2023-04-25T10:54:43;12.20;99.90
74934;DHT22;63499;53.232;7.492;2023-04-25T11:00:17;12.10;99.90
74934;DHT22;63499;53.232;7.492;2023-04-25T11:03:07;12.00;99.90
74934;DHT22;63499;53.232;7.492;2023-04-25T11:05:33;11.90;99.90
74934;DHT22;63499;53.232;7.492;2023-04-25T11:08:00;12.00;99.90
74934;DHT22;63499;53.232;7.492;2023-04-25T11:10:28;12.30;99.90
74934;DHT22;63499;53.232;7.492;2023-04-25T11:12:55;12.70;99.90
74934;DHT22;63499;53.232;7.492;2023-04-25T11:15:25;12.60;99.60
74934;DHT22;63499;53.232;7.492;2023-04-25T11:17:52;12.40;99.40
74934;DHT22;63499;53.232;7.492;2023-04-25T11:20:19;12.60;99.90
74934;DHT22;63499;53.232;7.492;2023-04-25T11:22:47;12.90;99.90
74934;DHT22;63499;53.232;7.492;2023-04-25T11:25:15;12.50;98.90
74934;DHT22;63499;53.232;7.492;2023-04-25T11:27:56;12.40;99.70
74934;DHT22;63499;53.232;7.492;2023-04-25T11:30:24;12.50;99.50
74934;DHT22;63499;53.232;7.492;2023-04-25T11:32:51;12.30;99.00
74934;DHT22;63499;53.232;7.492;2023-04-25T11:35:19;12.20;98.30
74934;DHT22;63499;53.232;7.492;2023-04-25T11:37:46;12.10;97.00
74934;DHT22;63499;53.232;7.492;2023-04-25T11:40:13;12.20;98.40
74934;DHT22;63499;53.232;7.492;2023-04-25T11:42:43;11.90;99.10
74934;DHT22;63499;53.232;7.492;2023-04-25T11:45:10;12.30;99.40
74934;DHT22;63499;53.232;7.492;2023-04-25T11:47:37;12.60;99.70
74934;DHT22;63499;53.232;7.492;2023-04-25T11:50:05;12.80;99.30
74934;DHT22;63499;53.232;7.492;2023-04-25T11:52:42;12.90;99.70
74934;DHT22;63499;53.232;7.492;2023-04-25T11:55:14;13.10;99.10
74934;DHT22;63499;53.232;7.492;2023-04-25T11:57:45;13.00;97.80
74934;DHT22;63499;53.232;7.492;2023-04-25T12:00:14;13.00;99.80
74934;DHT22;63499;53.232;7.492;2023-04-25T12:02:54;12.70;99.90
74934;DHT22;63499;53.232;7.492;2023-04-25T12:05:24;12.90;99.90
74934;DHT22;63499;53.232;7.492;2023-04-25T12:07:51;13.10;99.90
74934;DHT22;63499;53.232;7.492;2023-04-25T12:10:18;13.40;99.90
74934;DHT22;63499;53.232;7.492;2023-04-25T12:12:46;13.10;99.30
74934;DHT22;63499;53.232;7.492;2023-04-25T12:15:24;12.90;97.70
74934;DHT22;63499;53.232;7.492;2023-04-25T12:17:53;12.90;97.20
74934;DHT22;63499;53.232;7.492;2023-04-25T12:20:31;12.70;96.70
74934;DHT22;63499;53.232;7.492;2023-04-25T12:22:57;12.80;97.90
74934;DHT22;63499;53.232;7.492;2023-04-25T12:25:43;12.70;98.70
74934;DHT22;63499;53.232;7.492;2023-04-25T12:28:11;12.60;97.00
74934;DHT22;63499;53.232;7.492;2023-04-25T12:33:24;12.00;96.80
74934;DHT22;63499;53.232;7.492;2023-04-25T12:35:51;12.00;97.20
74934;DHT22;63499;53.232;7.492;2023-04-25T12:38:28;12.40;97.70
74934;DHT22;63499;53.232;7.492;2023-04-25T12:40:58;12.30;99.50
74934;DHT22;63499;53.232;7.492;2023-04-25T12:43:24;12.30;99.90
74934;DHT22;63499;53.232;7.492;2023-04-25T12:45:53;12.40;99.90
74934;DHT22;63499;53.232;7.492;2023-04-25T12:48:19;12.50;99.90
74934;DHT22;63499;53.232;7.492;2023-04-25T12:50:46;12.10;99.40
74934;DHT22;63499;53.232;7.492;2023-04-25T12:53:17;11.90;99.90
74934;DHT22;63499;53.232;7.492;2023-04-25T12:55:45;11.40;99.90
74934;DHT22;63499;53.232;7.492;2023-04-25T12:58:18;11.10;99.90
74934;DHT22;63499;53.232;7.492;2023-04-25T13:03:12;10.60;99.90
74934;DHT22;63499;53.232;7.492;2023-04-25T14:54:10;10.70;99.90
74934;DHT22;63499;53.232;7.492;2023-04-25T14:56:37;11.20;99.90
74934;DHT22;63499;53.232;7.492;2023-04-25T14:59:04;10.80;99.90
74934;DHT22;63499;53.232;7.492;2023-04-25T15:01:30;10.90;99.90
74934;DHT22;63499;53.232;7.492;2023-04-25T15:03:56;11.60;99.90
74934;DHT22;63499;53.232;7.492;2023-04-25T15:06:23;11.90;99.90
74934;DHT22;63499;53.232;7.492;2023-04-25T15:08:52;12.70;99.90
74934;DHT22;63499;53.232;7.492;2023-04-25T15:11:19;13.10;99.90
74934;DHT22;63499;53.232;7.492;2023-04-25T15:13:46;13.40;99.90
74934;DHT22;63499;53.232;7.492;2023-04-25T15:16:12;13.60;99.90
74934;DHT22;63499;53.232;7.492;2023-04-25T15:18:39;13.50;99.90
74934;DHT22;63499;53.232;7.492;2023-04-25T15:21:06;13.70;99.90
74934;DHT22;63499;53.232;7.492;2023-04-25T15:23:33;13.40;99.90
74934;DHT22;63499;53.232;7.492;2023-04-25T15:25:59;12.70;99.90
74934;DHT22;63499;53.232;7.492;2023-04-25T15:28:25;12.30;99.90
74934;DHT22;63499;53.232;7.492;2023-04-25T15:30:51;12.40;99.90
74934;DHT22;63499;53.232;7.492;2023-04-25T15:33:20;12.10;99.90
74934;DHT22;63499;53.232;7.492;2023-04-25T15:35:47;11.70;99.90
74934;DHT22;63499;53.232;7.492;2023-04-25T15:38:13;11.80;99.90
74934;DHT22;63499;53.232;7.492;2023-04-25T15:40:40;11.70;99.90
74934;DHT22;63499;53.232;7.492;2023-04-25T15:43:07;11.20;99.90
74934;DHT22;63499;53.232;7.492;2023-04-25T15:45:40;11.10;99.90
74934;DHT22;63499;53.232;7.492;2023-04-25T15:48:07;11.40;99.90
74934;DHT22;63499;53.232;7.492;2023-04-25T15:50:33;12.00;99.90
74934;DHT22;63499;53.232;7.492;2023-04-25T15:53:01;12.50;99.90
74934;DHT22;63499;53.232;7.492;2023-04-25T15:55:27;12.70;99.90
74934;DHT22;63499;53.232;7.492;2023-04-25T15:57:54;12.70;99.90
74934;DHT22;63499;53.232;7.492;2023-04-25T16:00:21;13.00;99.90
74934;DHT22;63499;53.232;7.492;2023-04-25T16:02:47;13.10;99.90
74934;DHT22;63499;53.232;7.492;2023-04-25T16:05:14;12.00;99.90
74934;DHT22;63499;53.232;7.492;2023-04-25T16:07:41;11.40;99.90
74934;DHT22;63499;53.232;7.492;2023-04-25T16:10:09;11.10;99.90
74934;DHT22;63499;53.232;7.492;2023-04-25T16:12:37;10.90;99.90
74934;DHT22;63499;53.232;7.492;2023-04-25T16:15:03;10.70;99.90
74934;DHT22;63499;53.232;7.492;2023-04-25T16:17:30;10.40;99.90
74934;DHT22;63499;53.232;7.492;2023-04-25T16:19:59;10.40;99.90
74934;DHT22;63499;53.232;7.492;2023-04-25T16:22:27;10.30;99.90
74934;DHT22;63499;53.232;7.492;2023-04-25T16:24:53;10.30;99.90
74934;DHT22;63499;53.232;7.492;2023-04-25T16:27:20;10.10;99.90
74934;DHT22;63499;53.232;7.492;2023-04-25T16:29:46;10.00;99.90
74934;DHT22;63499;53.232;7.492;2023-04-25T16:32:14;9.90;99.90
74934;DHT22;63499;53.232;7.492;2023-04-25T16:34:40;9.80;99.90
74934;DHT22;63499;53.232;7.492;2023-04-25T16:37:06;9.60;99.90
74934;DHT22;63499;53.232;7.492;2023-04-25T16:39:32;9.60;99.90
74934;DHT22;63499;53.232;7.492;2023-04-25T16:41:58;9.60;99.90
74934;DHT22;63499;53.232;7.492;2023-04-25T16:44:25;9.50;99.90
74934;DHT22;63499;53.232;7.492;2023-04-25T16:46:51;9.60;99.90
74934;DHT22;63499;53.232;7.492;2023-04-25T16:49:17;9.80;99.90
74934;DHT22;63499;53.232;7.492;2023-04-25T16:51:44;10.20;99.90
74934;DHT22;63499;53.232;7.492;2023-04-25T16:54:11;10.30;99.90
74934;DHT22;63499;53.232;7.492;2023-04-25T16:56:38;10.30;99.90
74934;DHT22;63499;53.232;7.492;2023-04-25T16:59:04;10.30;99.90
74934;DHT22;63499;53.232;7.492;2023-04-25T17:01:31;10.20;99.90
74934;DHT22;63499;53.232;7.492;2023-04-25T17:03:57;10.30;99.90
74934;DHT22;63499;53.232;7.492;2023-04-25T17:06:31;10.10;99.90
74934;DHT22;63499;53.232;7.492;2023-04-25T17:08:58;10.10;99.90
74934;DHT22;63499;53.232;7.492;2023-04-25T17:11:24;10.00;99.90
74934;DHT22;63499;53.232;7.492;2023-04-25T17:13:50;10.00;99.90
74934;DHT22;63499;53.232;7.492;2023-04-25T17:16:20;9.80;99.90
74934;DHT22;63499;53.232;7.492;2023-04-25T17:18:50;9.80;99.90
74934;DHT22;63499;53.232;7.492;2023-04-25T17:21:17;9.70;99.90
74934;DHT22;63499;53.232;7.492;2023-04-25T17:23:43;9.60;99.90
74934;DHT22;63499;53.232;7.492;2023-04-25T17:26:13;9.40;99.90
74934;DHT22;63499;53.232;7.492;2023-04-25T17:31:07;9.10;99.90
74934;DHT22;63499;53.232;7.492;2023-04-25T17:33:34;9.00;99.90
74934;DHT22;63499;53.232;7.492;2023-04-25T17:36:00;9.00;99.90
74934;DHT22;63499;53.232;7.492;2023-04-25T17:38:28;8.80;99.90
74934;DHT22;63499;53.232;7.492;2023-04-25T17:40:55;8.70;99.90
74934;DHT22;63499;53.232;7.492;2023-04-25T17:43:21;8.70;99.90
74934;DHT22;63499;53.232;7.492;2023-04-25T17:45:47;8.60;99.90
74934;DHT22;63499;53.232;7.492;2023-04-25T17:48:14;8.60;99.90
74934;DHT22;63499;53.232;7.492;2023-04-25T17:50:40;8.60;99.90
74934;DHT22;63499;53.232;7.492;2023-04-25T17:53:06;8.60;99.90
74934;DHT22;63499;53.232;7.492;2023-04-25T17:55:33;8.60;99.90
74934;DHT22;63499;53.232;7.492;2023-04-25T17:57:59;8.50;99.90
74934;DHT22;63499;53.232;7.492;2023-04-25T18:00:26;8.50;99.90
74934;DHT22;63499;53.232;7.492;2023-04-25T18:02:52;8.40;99.90
74934;DHT22;63499;53.232;7.492;2023-04-25T18:05:19;8.40;99.90
74934;DHT22;63499;53.232;7.492;2023-04-25T18:07:48;8.40;99.90
74934;DHT22;63499;53.232;7.492;2023-04-25T18:10:14;8.30;99.90
74934;DHT22;63499;53.232;7.492;2023-04-25T18:12:40;8.30;99.90
74934;DHT22;63499;53.232;7.492;2023-04-25T18:15:08;8.20;99.90
74934;DHT22;63499;53.232;7.492;2023-04-25T18:17:35;8.20;99.90
74934;DHT22;63499;53.232;7.492;2023-04-25T18:20:09;8.10;99.90
74934;DHT22;63499;53.232;7.492;2023-04-25T18:22:38;8.10;99.90
74934;DHT22;63499;53.232;7.492;2023-04-25T18:25:05;8.10;99.90
74934;DHT22;63499;53.232;7.492;2023-04-25T18:27:33;8.10;99.90
74934;DHT22;63499;53.232;7.492;2023-04-25T18:29:59;8.00;99.90
74934;DHT22;63499;53.232;7.492;2023-04-25T18:32:25;8.00;99.90
74934;DHT22;63499;53.232;7.492;2023-04-25T18:34:56;7.90;99.90
74934;DHT22;63499;53.232;7.492;2023-04-25T18:37:22;7.80;99.90
74934;DHT22;63499;53.232;7.492;2023-04-25T18:39:48;7.70;99.90
74934;DHT22;63499;53.232;7.492;2023-04-25T18:42:15;7.70;99.90
74934;DHT22;63499;53.232;7.492;2023-04-25T18:44:42;7.70;99.90
74934;DHT22;63499;53.232;7.492;2023-04-25T18:47:08;7.60;99.90
74934;DHT22;63499;53.232;7.492;2023-04-25T18:49:36;7.50;99.90
74934;DHT22;63499;53.232;7.492;2023-04-25T18:52:02;7.50;99.90
74934;DHT22;63499;53.232;7.492;2023-04-25T18:54:29;7.40;99.90
74934;DHT22;63499;53.232;7.492;2023-04-25T18:56:55;7.40;99.90
74934;DHT22;63499;53.232;7.492;2023-04-25T18:59:22;7.30;99.90
74934;DHT22;63499;53.232;7.492;2023-04-25T19:01:49;7.30;99.90
74934;DHT22;63499;53.232;7.492;2023-04-25T19:04:16;7.20;99.90
74934;DHT22;63499;53.232;7.492;2023-04-25T19:06:43;7.10;99.90
74934;DHT22;63499;53.232;7.492;2023-04-25T19:09:11;7.00;99.90
74934;DHT22;63499;53.232;7.492;2023-04-25T19:11:38;6.90;99.90
74934;DHT22;63499;53.232;7.492;2023-04-25T19:14:04;6.90;99.90
74934;DHT22;63499;53.232;7.492;2023-04-25T19:16:30;6.90;99.90
74934;DHT22;63499;53.232;7.492;2023-04-25T19:19:04;7.00;99.90
74934;DHT22;63499;53.232;7.492;2023-04-25T19:21:31;6.90;99.90
74934;DHT22;63499;53.232;7.492;2023-04-25T19:23:58;6.90;99.90
74934;DHT22;63499;53.232;7.492;2023-04-25T19:26:26;6.90;99.90
74934;DHT22;63499;53.232;7.492;2023-04-25T19:31:34;6.70;99.90
74934;DHT22;63499;53.232;7.492;2023-04-25T19:34:01;6.70;99.90
74934;DHT22;63499;53.232;7.492;2023-04-25T19:36:28;6.70;99.90
74934;DHT22;63499;53.232;7.492;2023-04-25T19:38:54;6.70;99.90
74934;DHT22;63499;53.232;7.492;2023-04-25T19:41:28;6.80;99.90
74934;DHT22;63499;53.232;7.492;2023-04-25T19:43:54;6.80;99.90
74934;DHT22;63499;53.232;7.492;2023-04-25T19:46:20;6.90;99.90
74934;DHT22;63499;53.232;7.492;2023-04-25T19:48:47;6.90;99.90
74934;DHT22;63499;53.232;7.492;2023-04-25T19:51:13;7.10;99.90
74934;DHT22;63499;53.232;7.492;2023-04-25T19:53:40;7.10;99.90
74934;DHT22;63499;53.232;7.492;2023-04-25T19:56:09;7.20;99.90
74934;DHT22;63499;53.232;7.492;2023-04-25T19:58:35;7.20;99.90
74934;DHT22;63499;53.232;7.492;2023-04-25T20:01:01;7.30;99.90
74934;DHT22;63499;53.232;7.492;2023-04-25T20:03:29;7.20;99.90
74934;DHT22;63499;53.232;7.492;2023-04-25T20:05:55;7.20;99.90
74934;DHT22;63499;53.232;7.492;2023-04-25T20:08:22;7.00;99.90
74934;DHT22;63499;53.232;7.492;2023-04-25T20:10:49;6.80;99.90
74934;DHT22;63499;53.232;7.492;2023-04-25T20:13:15;6.80;99.90
74934;DHT22;63499;53.232;7.492;2023-04-25T20:15:42;6.70;99.90
74934;DHT22;63499;53.232;7.492;2023-04-25T20:18:09;6.60;99.90
74934;DHT22;63499;53.232;7.492;2023-04-25T20:20:36;6.50;99.90
74934;DHT22;63499;53.232;7.492;2023-04-25T20:23:03;6.20;99.90
74934;DHT22;63499;53.232;7.492;2023-04-25T20:25:29;6.20;99.90
74934;DHT22;63499;53.232;7.492;2023-04-25T20:27:56;6.10;99.90
74934;DHT22;63499;53.232;7.492;2023-04-25T20:30:22;6.10;99.90
74934;DHT22;63499;53.232;7.492;2023-04-25T20:32:48;6.10;99.90
74934;DHT22;63499;53.232;7.492;2023-04-25T20:35:15;6.10;99.90
